createdAt,value
2023-03-10T00:00:56.757Z,21.17
2023-03-10T00:06:00.330Z,25.30
2023-03-10T00:11:05.165Z,18.23
2023-03-10T00:16:09.540Z,14.83
2023-03-10T00:21:15.641Z,11.47
2023-03-10T00:26:22.258Z,16.77
2023-03-10T00:31:31.487Z,13.63
2023-03-10T00:36:34.947Z,12.07
2023-03-10T00:41:40.197Z,11.63
2023-03-10T00:46:43.609Z,10.23
2023-03-10T00:51:47.066Z,12.47
2023-03-10T00:56:51.557Z,10.60
2023-03-10T01:01:54.823Z,11.27
2023-03-10T01:06:58.174Z,7.27
2023-03-10T01:12:02.779Z,11.10
2023-03-10T01:17:06.307Z,9.60
2023-03-10T01:22:09.573Z,8.43
2023-03-10T01:27:14.127Z,6.53
2023-03-10T01:32:17.468Z,8.30
2023-03-10T01:37:21.229Z,6.43
2023-03-10T01:42:32.886Z,6.37
2023-03-10T01:47:36.242Z,7.33
2023-03-10T01:52:39.553Z,7.83
2023-03-10T01:57:50.340Z,10.00
2023-03-10T02:02:59.192Z,6.70
2023-03-10T02:08:04.747Z,6.10
2023-03-10T02:13:09.372Z,7.27
2023-03-10T02:18:16.435Z,9.77
2023-03-10T02:23:29.630Z,4.53
2023-03-10T02:28:35.302Z,8.20
2023-03-10T02:33:39.485Z,4.33
2023-03-10T02:38:42.751Z,4.67
2023-03-10T02:43:49.283Z,7.43
2023-03-10T02:48:53.983Z,6.23
2023-03-10T02:53:58.092Z,6.57
2023-03-10T02:59:03.369Z,4.60
2023-03-10T03:04:07.467Z,3.03
2023-03-10T03:09:10.737Z,8.13
2023-03-10T03:14:17.169Z,4.63
2023-03-10T03:19:21.565Z,4.20
2023-03-10T03:24:24.781Z,3.57
2023-03-10T03:29:29.575Z,5.93
2023-03-10T03:34:32.788Z,4.97
2023-03-10T03:39:36.019Z,4.97
2023-03-10T03:44:40.640Z,5.87
2023-03-10T03:49:44.159Z,6.83
2023-03-10T03:54:47.410Z,2.83
2023-03-10T03:59:52.073Z,3.70
2023-03-10T04:04:55.545Z,3.03
2023-03-10T04:09:58.970Z,7.43
2023-03-10T04:15:03.896Z,5.97
2023-03-10T04:20:09.501Z,3.77
2023-03-10T04:25:13.064Z,4.00
2023-03-10T04:30:17.784Z,5.77
2023-03-10T04:35:21.205Z,3.53
2023-03-10T04:40:24.763Z,5.83
2023-03-10T04:45:29.456Z,5.00
2023-03-10T04:50:32.763Z,6.40
2023-03-10T04:55:35.842Z,2.97
2023-03-10T05:00:53.102Z,4.10
2023-03-10T05:06:03.799Z,2.73
2023-03-10T05:11:07.676Z,3.67
2023-03-10T05:16:16.522Z,1.73
2023-03-10T05:21:21.668Z,2.93
2023-03-10T05:26:24.985Z,3.90
2023-03-10T05:31:29.877Z,5.40
2023-03-10T05:36:33.174Z,3.70
2023-03-10T05:41:37.578Z,1.97
2023-03-10T05:46:49.423Z,4.77
2023-03-10T05:51:53.379Z,2.23
2023-03-10T05:56:56.471Z,3.33
2023-03-10T06:02:01.076Z,4.40
2023-03-10T06:07:06.120Z,2.33
2023-03-10T06:12:09.952Z,3.37
2023-03-10T06:17:14.629Z,1.90
2023-03-10T06:22:20.842Z,2.73
2023-03-10T06:27:24.192Z,4.97
2023-03-10T06:32:31.847Z,2.93
2023-03-10T06:37:35.343Z,1.97
2023-03-10T06:42:42.431Z,1.50
2023-03-10T06:47:50.128Z,1.77
2023-03-10T06:52:58.984Z,2.23
2023-03-10T06:58:02.250Z,2.43
2023-03-10T07:03:06.986Z,2.27
2023-03-10T07:08:11.090Z,1.53
2023-03-10T07:13:16.435Z,2.67
2023-03-10T07:18:21.378Z,1.70
2023-03-10T07:23:25.020Z,1.57
2023-03-10T07:28:28.680Z,1.07
2023-03-10T07:33:33.493Z,1.85
2023-03-10T07:38:36.932Z,1.67
2023-03-10T07:43:40.412Z,0.80
2023-03-10T07:48:45.356Z,2.42
2023-03-10T07:53:49.044Z,0.98
2023-03-10T07:58:52.216Z,1.80
2023-03-10T08:03:58.253Z,1.10
2023-03-10T08:09:01.803Z,0.60
2023-03-10T08:14:05.099Z,1.45
2023-03-10T08:19:09.888Z,0.95
2023-03-10T08:24:13.371Z,0.82
2023-03-10T08:29:16.539Z,1.48
2023-03-10T08:34:21.649Z,1.67
2023-03-10T08:39:27.559Z,0.65
2023-03-10T08:44:31.622Z,2.80
2023-03-10T08:49:37.145Z,3.20
2023-03-10T08:54:40.444Z,0.88
2023-03-10T08:59:43.713Z,1.40
2023-03-10T09:04:48.661Z,1.45
2023-03-10T09:09:52.041Z,2.60
2023-03-10T09:14:55.263Z,0.85
2023-03-10T09:19:59.960Z,1.73
2023-03-10T09:25:03.221Z,2.25
2023-03-10T09:30:07.478Z,1.23
2023-03-10T09:35:12.836Z,1.55
2023-03-10T09:40:18.959Z,1.25
2023-03-10T09:45:28.024Z,1.35
2023-03-10T09:50:37.344Z,2.88
2023-03-10T09:55:47.784Z,1.02
2023-03-10T10:00:51.602Z,1.38
2023-03-10T10:05:58.934Z,2.08
2023-03-10T10:11:04.279Z,4.88
2023-03-10T10:16:31.878Z,2.72
2023-03-10T10:21:48.665Z,3.22
2023-03-10T10:26:51.891Z,1.73
2023-03-10T10:32:05.886Z,3.47
2023-03-10T10:37:30.843Z,2.80
2023-03-10T10:42:35.704Z,1.42
2023-03-10T10:47:49.613Z,3.97
2023-03-10T10:53:19.876Z,1.60
2023-03-10T10:58:29.996Z,2.60
2023-03-10T11:03:37.091Z,1.95
2023-03-10T11:08:45.145Z,3.85
2023-03-10T11:14:01.499Z,1.85
2023-03-10T11:19:10.428Z,2.67
2023-03-10T11:24:26.010Z,1.05
2023-03-10T11:29:44.125Z,2.95
2023-03-10T11:34:51.766Z,1.88
2023-03-10T11:40:08.278Z,4.10
2023-03-10T11:45:25.707Z,1.33
2023-03-10T11:50:38.245Z,2.10
2023-03-10T11:55:44.667Z,2.33
2023-03-10T12:00:48.994Z,1.17
2023-03-10T12:05:55.809Z,3.08
2023-03-10T12:11:01.966Z,2.58
2023-03-10T12:16:20.276Z,2.17
2023-03-10T12:21:26.200Z,2.38
2023-03-10T12:27:02.895Z,1.33
2023-03-10T12:32:07.116Z,2.05
2023-03-10T12:37:13.222Z,3.63
2023-03-10T12:42:32.392Z,1.13
2023-03-10T12:47:54.448Z,0.90
2023-03-10T12:53:04.961Z,2.65
2023-03-10T12:58:18.855Z,2.15
2023-03-10T13:03:35.556Z,1.35
2023-03-10T13:08:44.600Z,3.30
2023-03-10T13:13:52.641Z,2.80
2023-03-10T13:18:56.615Z,1.08
2023-03-10T13:24:00.851Z,2.22
2023-03-10T13:29:05.677Z,0.73
2023-03-10T13:34:21.477Z,2.13
2023-03-10T13:39:28.060Z,1.58
2023-03-10T13:44:41.959Z,1.65
2023-03-10T13:49:49.652Z,1.42
2023-03-10T13:54:53.489Z,1.90
2023-03-10T13:59:59.270Z,4.63
2023-03-10T14:05:02.710Z,1.23
2023-03-10T14:10:15.289Z,1.63
2023-03-10T14:15:38.261Z,0.88
2023-03-10T14:20:43.572Z,2.28
2023-03-10T14:25:47.823Z,1.52
2023-03-10T14:30:53.412Z,3.25
2023-03-10T14:35:56.730Z,1.63
2023-03-10T14:40:59.854Z,1.90
2023-03-10T14:46:05.989Z,0.88
2023-03-10T14:51:36.234Z,2.22
2023-03-10T14:56:40.076Z,1.75
2023-03-10T15:01:47.135Z,2.35
2023-03-10T15:06:53.275Z,1.27
2023-03-10T15:11:57.468Z,1.73
2023-03-10T15:17:04.374Z,5.40
2023-03-10T15:27:32.681Z,1.48
2023-03-10T15:32:37.432Z,2.47
2023-03-10T15:37:40.889Z,1.85
2023-03-10T15:42:44.010Z,2.63
2023-03-10T15:47:48.953Z,1.35
2023-03-10T15:52:54.955Z,1.25
2023-03-10T15:57:58.459Z,1.80
2023-03-10T16:03:03.070Z,2.05
2023-03-10T16:08:07.083Z,0.52
2023-03-10T16:13:10.452Z,1.40
2023-03-10T16:18:15.724Z,5.30
2023-03-10T16:23:19.946Z,1.60
2023-03-10T16:28:23.214Z,3.33
2023-03-10T16:33:27.795Z,1.83
2023-03-10T16:38:31.207Z,1.50
2023-03-10T16:43:35.752Z,1.75
2023-03-10T16:48:42.801Z,2.47
2023-03-10T16:53:46.696Z,4.05
2023-03-10T16:59:25.852Z,3.58
2023-03-10T17:04:47.459Z,2.03
2023-03-10T17:09:56.268Z,3.92
2023-03-10T17:14:59.832Z,3.33
2023-03-10T17:20:07.533Z,1.73
2023-03-10T17:25:14.962Z,2.97
2023-03-10T17:30:20.312Z,2.10
2023-03-10T17:35:25.126Z,1.55
2023-03-10T17:40:28.656Z,1.30
2023-03-10T17:45:31.715Z,2.10
2023-03-10T17:50:36.183Z,2.05
2023-03-10T17:55:39.403Z,2.05
2023-03-10T18:00:43.508Z,2.17
2023-03-10T18:05:48.357Z,2.37
2023-03-10T18:11:01.217Z,4.10
2023-03-10T18:16:11.161Z,1.33
2023-03-10T18:21:22.753Z,2.23
2023-03-10T18:26:33.876Z,4.00
2023-03-10T18:31:37.949Z,1.23
2023-03-10T18:36:42.696Z,2.80
2023-03-10T18:41:46.021Z,2.50
2023-03-10T18:46:50.714Z,1.37
2023-03-10T18:51:55.297Z,1.97
2023-03-10T18:57:02.032Z,1.27
2023-03-10T19:02:05.498Z,2.17
2023-03-10T19:07:15.222Z,1.77
2023-03-10T19:12:19.578Z,1.60
2023-03-10T19:17:26.640Z,1.17
2023-03-10T19:22:42.727Z,1.60
2023-03-10T19:27:46.377Z,1.10
2023-03-10T19:32:50.226Z,0.50
2023-03-10T19:37:59.656Z,0.43
2023-03-10T19:43:15.142Z,0.53
2023-03-10T19:48:21.436Z,0.77
2023-03-10T19:54:06.063Z,2.10
2023-03-10T19:59:10.259Z,1.17
2023-03-10T20:04:13.628Z,0.53
2023-03-10T20:09:19.121Z,1.27
2023-03-10T20:14:26.939Z,0.70
2023-03-10T20:19:32.513Z,0.30
2023-03-10T20:24:37.207Z,0.63
2023-03-10T20:29:57.363Z,0.30
2023-03-10T20:35:01.187Z,0.30
2023-03-10T20:40:07.625Z,1.07
2023-03-10T20:45:11.961Z,0.80
2023-03-10T20:50:16.363Z,1.23
2023-03-10T20:55:23.229Z,0.30
2023-03-10T21:00:29.303Z,1.67
2023-03-10T21:05:39.331Z,1.73
2023-03-10T21:10:44.958Z,0.93
2023-03-10T21:15:48.160Z,0.50
2023-03-10T21:20:51.581Z,1.60
2023-03-10T21:25:56.645Z,0.67
2023-03-10T21:31:00.110Z,0.57
2023-03-10T21:36:03.759Z,1.10
2023-03-10T21:41:09.005Z,1.90
2023-03-10T21:46:12.716Z,1.27
2023-03-10T21:51:20.664Z,1.07
2023-03-10T21:56:28.279Z,0.47
2023-03-10T22:01:31.647Z,1.17
2023-03-10T22:06:34.875Z,0.70
2023-03-10T22:11:39.665Z,0.50
2023-03-10T22:16:43.282Z,0.33
2023-03-10T22:21:46.489Z,0.60
2023-03-10T22:26:51.209Z,0.60
2023-03-10T22:31:56.318Z,0.30
2023-03-10T22:36:59.544Z,0.60
2023-03-10T22:42:04.957Z,0.50
2023-03-10T22:47:08.993Z,0.40
2023-03-10T22:52:12.129Z,0.30
2023-03-10T22:57:16.867Z,0.60
2023-03-10T23:02:20.044Z,1.00
2023-03-10T23:07:23.158Z,0.80
2023-03-10T23:12:28.719Z,0.50
2023-03-10T23:17:35.240Z,0.63
2023-03-10T23:22:38.649Z,1.10
2023-03-10T23:27:43.319Z,0.30
2023-03-10T23:32:49.048Z,0.40
2023-03-10T23:37:52.694Z,0.50
2023-03-10T23:42:58.416Z,0.77
2023-03-10T23:48:04.834Z,1.23
2023-03-10T23:53:09.169Z,1.23
2023-03-10T23:58:14.441Z,0.73
